sensor_id;sensor_type;location;lat;lon;timestamp;temperature;humidity
20566;DHT22;10441;50.884;12.064;2022-09-01T00:02:09;14.40;99.90
20566;DHT22;10441;50.884;12.064;2022-09-01T00:04:37;14.30;99.90
20566;DHT22;10441;50.884;12.064;2022-09-01T00:07:05;14.30;99.90
20566;DHT22;10441;50.884;12.064;2022-09-01T00:09:33;15.20;99.90
20566;DHT22;10441;50.884;12.064;2022-09-01T00:12:00;14.20;99.90
20566;DHT22;10441;50.884;12.064;2022-09-01T00:14:29;14.10;99.90
20566;DHT22;10441;50.884;12.064;2022-09-01T00:16:58;14.00;99.90
20566;DHT22;10441;50.884;12.064;2022-09-01T00:19:26;13.90;99.90
20566;DHT22;10441;50.884;12.064;2022-09-01T00:21:53;13.90;99.90
20566;DHT22;10441;50.884;12.064;2022-09-01T00:24:22;13.80;99.90
20566;DHT22;10441;50.884;12.064;2022-09-01T00:26:50;13.60;99.90
20566;DHT22;10441;50.884;12.064;2022-09-01T00:29:17;13.50;99.90
20566;DHT22;10441;50.884;12.064;2022-09-01T00:31:45;13.40;99.90
20566;DHT22;10441;50.884;12.064;2022-09-01T00:34:12;13.30;99.90
20566;DHT22;10441;50.884;12.064;2022-09-01T00:36:39;13.30;99.90
20566;DHT22;10441;50.884;12.064;2022-09-01T00:39:06;13.30;99.90
20566;DHT22;10441;50.884;12.064;2022-09-01T00:41:35;13.20;99.90
20566;DHT22;10441;50.884;12.064;2022-09-01T00:44:03;13.20;99.90
20566;DHT22;10441;50.884;12.064;2022-09-01T00:46:32;13.10;99.90
20566;DHT22;10441;50.884;12.064;2022-09-01T00:49:00;13.10;99.90
20566;DHT22;10441;50.884;12.064;2022-09-01T00:51:27;13.10;99.90
20566;DHT22;10441;50.884;12.064;2022-09-01T00:53:55;13.00;99.90
20566;DHT22;10441;50.884;12.064;2022-09-01T00:56:22;13.00;99.90
20566;DHT22;10441;50.884;12.064;2022-09-01T00:58:50;13.00;99.90
20566;DHT22;10441;50.884;12.064;2022-09-01T01:01:18;13.00;99.90
20566;DHT22;10441;50.884;12.064;2022-09-01T01:03:45;12.90;99.90
20566;DHT22;10441;50.884;12.064;2022-09-01T01:06:12;12.90;99.90
20566;DHT22;10441;50.884;12.064;2022-09-01T01:08:41;12.80;99.90
20566;DHT22;10441;50.884;12.064;2022-09-01T01:11:14;12.70;99.90
20566;DHT22;10441;50.884;12.064;2022-09-01T01:13:49;12.70;99.90
20566;DHT22;10441;50.884;12.064;2022-09-01T01:16:18;12.60;99.90
20566;DHT22;10441;50.884;12.064;2022-09-01T01:18:44;12.50;99.90
20566;DHT22;10441;50.884;12.064;2022-09-01T01:21:16;12.50;99.90
20566;DHT22;10441;50.884;12.064;2022-09-01T01:24:01;12.40;99.90
20566;DHT22;10441;50.884;12.064;2022-09-01T01:26:32;12.40;99.90
20566;DHT22;10441;50.884;12.064;2022-09-01T01:28:59;12.40;99.90
20566;DHT22;10441;50.884;12.064;2022-09-01T01:31:28;12.30;99.90
20566;DHT22;10441;50.884;12.064;2022-09-01T01:33:56;12.20;99.90
20566;DHT22;10441;50.884;12.064;2022-09-01T01:36:24;12.20;99.90
20566;DHT22;10441;50.884;12.064;2022-09-01T01:38:57;12.20;99.90
20566;DHT22;10441;50.884;12.064;2022-09-01T01:41:28;12.10;99.90
20566;DHT22;10441;50.884;12.064;2022-09-01T01:43:58;12.00;99.90
20566;DHT22;10441;50.884;12.064;2022-09-01T01:46:25;12.00;99.90
20566;DHT22;10441;50.884;12.064;2022-09-01T01:48:53;11.90;99.90
20566;DHT22;10441;50.884;12.064;2022-09-01T01:51:20;11.90;99.90
20566;DHT22;10441;50.884;12.064;2022-09-01T01:53:49;11.90;99.90
20566;DHT22;10441;50.884;12.064;2022-09-01T01:56:17;11.90;99.90
20566;DHT22;10441;50.884;12.064;2022-09-01T01:58:44;11.70;99.90
20566;DHT22;10441;50.884;12.064;2022-09-01T02:01:12;11.70;99.90
20566;DHT22;10441;50.884;12.064;2022-09-01T02:03:41;11.70;99.90
20566;DHT22;10441;50.884;12.064;2022-09-01T02:06:09;11.70;99.90
20566;DHT22;10441;50.884;12.064;2022-09-01T02:08:36;11.70;99.90
20566;DHT22;10441;50.884;12.064;2022-09-01T02:11:04;11.70;99.90
20566;DHT22;10441;50.884;12.064;2022-09-01T02:13:31;11.60;99.90
20566;DHT22;10441;50.884;12.064;2022-09-01T02:15:59;11.60;99.90
20566;DHT22;10441;50.884;12.064;2022-09-01T02:18:30;11.50;99.90
20566;DHT22;10441;50.884;12.064;2022-09-01T02:20:58;11.50;99.90
20566;DHT22;10441;50.884;12.064;2022-09-01T02:23:25;11.50;99.90
20566;DHT22;10441;50.884;12.064;2022-09-01T02:25:54;11.50;99.90
20566;DHT22;10441;50.884;12.064;2022-09-01T02:28:22;11.50;99.90
20566;DHT22;10441;50.884;12.064;2022-09-01T02:30:50;11.50;99.90
20566;DHT22;10441;50.884;12.064;2022-09-01T02:33:18;11.50;99.90
20566;DHT22;10441;50.884;12.064;2022-09-01T02:35:47;11.40;99.90
20566;DHT22;10441;50.884;12.064;2022-09-01T02:38:14;11.40;99.90
20566;DHT22;10441;50.884;12.064;2022-09-01T02:40:42;11.40;99.90
20566;DHT22;10441;50.884;12.064;2022-09-01T02:43:11;11.50;99.90
20566;DHT22;10441;50.884;12.064;2022-09-01T02:45:39;11.50;99.90
20566;DHT22;10441;50.884;12.064;2022-09-01T02:48:09;11.50;99.90
20566;DHT22;10441;50.884;12.064;2022-09-01T02:50:36;11.50;99.90
20566;DHT22;10441;50.884;12.064;2022-09-01T02:53:04;11.40;99.90
20566;DHT22;10441;50.884;12.064;2022-09-01T02:55:34;11.50;99.90
20566;DHT22;10441;50.884;12.064;2022-09-01T02:58:01;11.50;99.90
20566;DHT22;10441;50.884;12.064;2022-09-01T03:00:28;11.60;99.90
20566;DHT22;10441;50.884;12.064;2022-09-01T03:02:56;11.60;99.90
20566;DHT22;10441;50.884;12.064;2022-09-01T03:05:24;11.70;99.90
20566;DHT22;10441;50.884;12.064;2022-09-01T03:07:53;11.70;99.90
20566;DHT22;10441;50.884;12.064;2022-09-01T03:10:27;11.70;99.90
20566;DHT22;10441;50.884;12.064;2022-09-01T03:12:56;11.70;99.90
20566;DHT22;10441;50.884;12.064;2022-09-01T03:15:24;11.80;99.90
20566;DHT22;10441;50.884;12.064;2022-09-01T03:17:52;11.80;99.90
20566;DHT22;10441;50.884;12.064;2022-09-01T03:20:23;11.80;99.90
20566;DHT22;10441;50.884;12.064;2022-09-01T03:23:06;11.80;99.90
20566;DHT22;10441;50.884;12.064;2022-09-01T03:25:34;11.70;99.90
20566;DHT22;10441;50.884;12.064;2022-09-01T03:28:02;11.70;99.90
20566;DHT22;10441;50.884;12.064;2022-09-01T03:30:29;11.80;99.90
20566;DHT22;10441;50.884;12.064;2022-09-01T03:32:57;11.70;99.90
20566;DHT22;10441;50.884;12.064;2022-09-01T03:35:24;11.80;99.90
20566;DHT22;10441;50.884;12.064;2022-09-01T03:37:52;11.90;99.90
20566;DHT22;10441;50.884;12.064;2022-09-01T03:40:21;11.80;99.90
20566;DHT22;10441;50.884;12.064;2022-09-01T03:42:50;11.70;99.90
20566;DHT22;10441;50.884;12.064;2022-09-01T03:45:18;11.70;99.90
20566;DHT22;10441;50.884;12.064;2022-09-01T03:47:47;11.70;99.90
20566;DHT22;10441;50.884;12.064;2022-09-01T03:50:14;11.70;99.90
20566;DHT22;10441;50.884;12.064;2022-09-01T03:52:45;11.70;99.90
20566;DHT22;10441;50.884;12.064;2022-09-01T03:55:12;11.70;99.90
20566;DHT22;10441;50.884;12.064;2022-09-01T03:57:44;11.60;99.90
20566;DHT22;10441;50.884;12.064;2022-09-01T04:00:16;11.70;99.90
20566;DHT22;10441;50.884;12.064;2022-09-01T04:02:46;11.60;99.90
20566;DHT22;10441;50.884;12.064;2022-09-01T04:05:16;11.80;99.90
20566;DHT22;10441;50.884;12.064;2022-09-01T04:07:45;11.80;99.90
20566;DHT22;10441;50.884;12.064;2022-09-01T04:10:14;11.70;99.90
20566;DHT22;10441;50.884;12.064;2022-09-01T04:12:42;11.80;99.90
20566;DHT22;10441;50.884;12.064;2022-09-01T04:15:17;12.00;99.90
20566;DHT22;10441;50.884;12.064;2022-09-01T04:17:45;11.90;99.90
20566;DHT22;10441;50.884;12.064;2022-09-01T04:20:29;11.90;99.90
20566;DHT22;10441;50.884;12.064;2022-09-01T04:23:05;11.90;99.90
20566;DHT22;10441;50.884;12.064;2022-09-01T04:25:36;11.90;99.90
20566;DHT22;10441;50.884;12.064;2022-09-01T04:28:04;12.00;99.90
20566;DHT22;10441;50.884;12.064;2022-09-01T04:30:40;12.00;99.90
20566;DHT22;10441;50.884;12.064;2022-09-01T04:33:08;12.00;99.90
20566;DHT22;10441;50.884;12.064;2022-09-01T04:35:37;12.00;99.90
20566;DHT22;10441;50.884;12.064;2022-09-01T04:38:08;12.10;99.90
20566;DHT22;10441;50.884;12.064;2022-09-01T04:40:36;12.20;99.90
20566;DHT22;10441;50.884;12.064;2022-09-01T04:43:03;12.20;99.90
20566;DHT22;10441;50.884;12.064;2022-09-01T04:45:33;12.30;99.90
20566;DHT22;10441;50.884;12.064;2022-09-01T04:48:02;12.30;99.90
20566;DHT22;10441;50.884;12.064;2022-09-01T04:50:30;12.30;99.90
20566;DHT22;10441;50.884;12.064;2022-09-01T04:53:01;12.30;99.90
20566;DHT22;10441;50.884;12.064;2022-09-01T04:55:30;12.40;99.90
20566;DHT22;10441;50.884;12.064;2022-09-01T04:58:00;12.30;99.90
20566;DHT22;10441;50.884;12.064;2022-09-01T05:00:28;12.20;99.90
20566;DHT22;10441;50.884;12.064;2022-09-01T05:02:59;12.20;99.90
20566;DHT22;10441;50.884;12.064;2022-09-01T05:05:34;12.20;99.90
20566;DHT22;10441;50.884;12.064;2022-09-01T05:08:08;12.40;99.90
20566;DHT22;10441;50.884;12.064;2022-09-01T05:10:40;12.80;99.90
20566;DHT22;10441;50.884;12.064;2022-09-01T05:13:09;12.90;99.90
20566;DHT22;10441;50.884;12.064;2022-09-01T05:15:38;12.90;99.90
20566;DHT22;10441;50.884;12.064;2022-09-01T05:18:13;13.00;99.90
20566;DHT22;10441;50.884;12.064;2022-09-01T05:20:42;13.10;99.90
20566;DHT22;10441;50.884;12.064;2022-09-01T05:23:10;13.30;99.90
20566;DHT22;10441;50.884;12.064;2022-09-01T05:25:39;13.30;99.90
20566;DHT22;10441;50.884;12.064;2022-09-01T05:28:09;13.50;99.90
20566;DHT22;10441;50.884;12.064;2022-09-01T05:30:39;13.70;99.90
20566;DHT22;10441;50.884;12.064;2022-09-01T05:33:07;13.60;99.90
20566;DHT22;10441;50.884;12.064;2022-09-01T05:35:50;13.60;99.90
20566;DHT22;10441;50.884;12.064;2022-09-01T05:38:18;13.80;99.90
20566;DHT22;10441;50.884;12.064;2022-09-01T05:40:53;14.10;99.90
20566;DHT22;10441;50.884;12.064;2022-09-01T05:43:23;14.30;99.90
20566;DHT22;10441;50.884;12.064;2022-09-01T05:45:52;14.60;99.90
20566;DHT22;10441;50.884;12.064;2022-09-01T05:48:20;14.80;99.90
20566;DHT22;10441;50.884;12.064;2022-09-01T05:50:51;15.20;99.90
20566;DHT22;10441;50.884;12.064;2022-09-01T05:53:23;15.90;99.90
20566;DHT22;10441;50.884;12.064;2022-09-01T05:55:52;16.50;99.90
20566;DHT22;10441;50.884;12.064;2022-09-01T05:58:22;16.00;99.90
20566;DHT22;10441;50.884;12.064;2022-09-01T06:00:54;16.20;99.90
20566;DHT22;10441;50.884;12.064;2022-09-01T06:03:23;16.00;99.90
20566;DHT22;10441;50.884;12.064;2022-09-01T06:05:54;16.20;99.90
20566;DHT22;10441;50.884;12.064;2022-09-01T06:08:24;16.40;99.90
20566;DHT22;10441;50.884;12.064;2022-09-01T06:10:55;16.70;99.90
20566;DHT22;10441;50.884;12.064;2022-09-01T06:13:22;16.40;99.90
20566;DHT22;10441;50.884;12.064;2022-09-01T06:15:50;15.90;99.90
20566;DHT22;10441;50.884;12.064;2022-09-01T06:18:18;16.40;99.90
20566;DHT22;10441;50.884;12.064;2022-09-01T06:20:47;17.10;99.90
20566;DHT22;10441;50.884;12.064;2022-09-01T06:23:16;17.20;99.90
20566;DHT22;10441;50.884;12.064;2022-09-01T06:25:44;17.20;99.90
20566;DHT22;10441;50.884;12.064;2022-09-01T06:28:12;18.20;99.90
20566;DHT22;10441;50.884;12.064;2022-09-01T06:30:41;18.50;99.90
20566;DHT22;10441;50.884;12.064;2022-09-01T06:33:10;19.10;99.90
20566;DHT22;10441;50.884;12.064;2022-09-01T06:35:40;20.40;99.90
20566;DHT22;10441;50.884;12.064;2022-09-01T06:38:11;20.70;99.90
20566;DHT22;10441;50.884;12.064;2022-09-01T06:40:40;20.40;99.90
20566;DHT22;10441;50.884;12.064;2022-09-01T06:43:11;19.80;99.90
20566;DHT22;10441;50.884;12.064;2022-09-01T06:45:42;21.00;99.90
20566;DHT22;10441;50.884;12.064;2022-09-01T06:48:11;20.20;99.90
20566;DHT22;10441;50.884;12.064;2022-09-01T06:50:42;21.40;99.90
20566;DHT22;10441;50.884;12.064;2022-09-01T06:53:11;18.80;99.90
20566;DHT22;10441;50.884;12.064;2022-09-01T06:55:48;21.00;99.90
20566;DHT22;10441;50.884;12.064;2022-09-01T06:58:16;20.70;99.90
20566;DHT22;10441;50.884;12.064;2022-09-01T07:00:44;21.80;99.90
20566;DHT22;10441;50.884;12.064;2022-09-01T07:03:15;23.80;99.90
20566;DHT22;10441;50.884;12.064;2022-09-01T07:05:44;23.30;99.90
20566;DHT22;10441;50.884;12.064;2022-09-01T07:08:13;23.20;99.90
20566;DHT22;10441;50.884;12.064;2022-09-01T07:10:45;22.90;99.90
20566;DHT22;10441;50.884;12.064;2022-09-01T07:13:17;22.90;99.90
20566;DHT22;10441;50.884;12.064;2022-09-01T07:15:49;23.70;99.90
20566;DHT22;10441;50.884;12.064;2022-09-01T07:18:17;23.10;99.90
20566;DHT22;10441;50.884;12.064;2022-09-01T07:20:46;21.40;99.90
20566;DHT22;10441;50.884;12.064;2022-09-01T07:23:13;20.40;99.90
20566;DHT22;10441;50.884;12.064;2022-09-01T07:25:46;22.90;99.90
20566;DHT22;10441;50.884;12.064;2022-09-01T07:28:16;23.10;99.90
20566;DHT22;10441;50.884;12.064;2022-09-01T07:30:48;23.00;99.90
20566;DHT22;10441;50.884;12.064;2022-09-01T07:33:16;23.40;99.90
20566;DHT22;10441;50.884;12.064;2022-09-01T07:35:50;22.70;99.90
20566;DHT22;10441;50.884;12.064;2022-09-01T07:38:21;22.70;99.90
20566;DHT22;10441;50.884;12.064;2022-09-01T07:40:50;21.50;99.90
20566;DHT22;10441;50.884;12.064;2022-09-01T07:43:20;20.90;99.90
20566;DHT22;10441;50.884;12.064;2022-09-01T07:45:49;21.60;99.90
20566;DHT22;10441;50.884;12.064;2022-09-01T07:48:18;23.50;99.90
20566;DHT22;10441;50.884;12.064;2022-09-01T07:50:46;23.80;99.90
20566;DHT22;10441;50.884;12.064;2022-09-01T07:53:13;23.00;99.90
20566;DHT22;10441;50.884;12.064;2022-09-01T07:55:42;22.80;99.90
20566;DHT22;10441;50.884;12.064;2022-09-01T07:58:10;21.20;99.90
20566;DHT22;10441;50.884;12.064;2022-09-01T08:00:39;23.30;99.90
20566;DHT22;10441;50.884;12.064;2022-09-01T08:03:08;21.90;99.90
20566;DHT22;10441;50.884;12.064;2022-09-01T08:05:35;21.80;99.90
20566;DHT22;10441;50.884;12.064;2022-09-01T08:08:02;20.40;99.90
20566;DHT22;10441;50.884;12.064;2022-09-01T08:10:29;21.70;99.90
20566;DHT22;10441;50.884;12.064;2022-09-01T08:12:56;22.30;99.90
20566;DHT22;10441;50.884;12.064;2022-09-01T08:15:23;22.30;99.90
20566;DHT22;10441;50.884;12.064;2022-09-01T08:17:52;22.30;99.90
20566;DHT22;10441;50.884;12.064;2022-09-01T08:20:19;23.30;99.90
20566;DHT22;10441;50.884;12.064;2022-09-01T08:22:45;23.30;99.90
20566;DHT22;10441;50.884;12.064;2022-09-01T08:25:14;21.80;99.90
20566;DHT22;10441;50.884;12.064;2022-09-01T08:27:41;23.60;99.90
20566;DHT22;10441;50.884;12.064;2022-09-01T08:30:09;21.50;99.90
20566;DHT22;10441;50.884;12.064;2022-09-01T08:32:37;21.40;99.90
20566;DHT22;10441;50.884;12.064;2022-09-01T08:35:11;21.10;99.90
20566;DHT22;10441;50.884;12.064;2022-09-01T08:37:38;23.60;99.90
20566;DHT22;10441;50.884;12.064;2022-09-01T08:40:06;21.00;99.90
20566;DHT22;10441;50.884;12.064;2022-09-01T08:42:39;21.80;99.90
20566;DHT22;10441;50.884;12.064;2022-09-01T08:45:11;23.80;99.90
20566;DHT22;10441;50.884;12.064;2022-09-01T08:47:39;23.20;99.90
20566;DHT22;10441;50.884;12.064;2022-09-01T08:50:07;21.40;99.90
20566;DHT22;10441;50.884;12.064;2022-09-01T08:52:37;23.00;99.90
20566;DHT22;10441;50.884;12.064;2022-09-01T08:55:06;22.90;99.90
20566;DHT22;10441;50.884;12.064;2022-09-01T08:57:35;23.80;99.90
20566;DHT22;10441;50.884;12.064;2022-09-01T09:00:02;24.30;99.90
20566;DHT22;10441;50.884;12.064;2022-09-01T09:02:32;23.50;99.90
20566;DHT22;10441;50.884;12.064;2022-09-01T09:05:04;24.60;99.90
20566;DHT22;10441;50.884;12.064;2022-09-01T09:07:46;24.40;99.90
20566;DHT22;10441;50.884;12.064;2022-09-01T09:10:16;24.80;99.90
20566;DHT22;10441;50.884;12.064;2022-09-01T09:12:47;24.10;99.90
20566;DHT22;10441;50.884;12.064;2022-09-01T09:15:17;24.00;99.90
20566;DHT22;10441;50.884;12.064;2022-09-01T09:17:49;23.80;99.90
20566;DHT22;10441;50.884;12.064;2022-09-01T09:20:20;23.90;99.90
20566;DHT22;10441;50.884;12.064;2022-09-01T09:22:48;25.20;99.90
20566;DHT22;10441;50.884;12.064;2022-09-01T09:25:16;25.30;99.90
20566;DHT22;10441;50.884;12.064;2022-09-01T09:27:43;23.90;99.90
20566;DHT22;10441;50.884;12.064;2022-09-01T09:30:12;24.60;99.90
20566;DHT22;10441;50.884;12.064;2022-09-01T09:32:44;24.20;99.90
20566;DHT22;10441;50.884;12.064;2022-09-01T09:35:26;24.40;99.90
20566;DHT22;10441;50.884;12.064;2022-09-01T09:37:56;25.20;99.90
20566;DHT22;10441;50.884;12.064;2022-09-01T09:40:54;24.10;99.90
20566;DHT22;10441;50.884;12.064;2022-09-01T09:43:23;24.10;99.90
20566;DHT22;10441;50.884;12.064;2022-09-01T09:45:53;25.70;99.90
20566;DHT22;10441;50.884;12.064;2022-09-01T09:48:41;24.40;99.90
20566;DHT22;10441;50.884;12.064;2022-09-01T09:51:14;25.00;99.90
20566;DHT22;10441;50.884;12.064;2022-09-01T09:53:43;23.50;99.90
20566;DHT22;10441;50.884;12.064;2022-09-01T09:56:15;23.60;99.90
20566;DHT22;10441;50.884;12.064;2022-09-01T09:58:43;25.50;99.90
20566;DHT22;10441;50.884;12.064;2022-09-01T10:01:11;24.60;99.90
20566;DHT22;10441;50.884;12.064;2022-09-01T10:03:41;23.00;99.90
20566;DHT22;10441;50.884;12.064;2022-09-01T10:06:09;22.90;99.90
20566;DHT22;10441;50.884;12.064;2022-09-01T10:08:37;23.70;99.90
20566;DHT22;10441;50.884;12.064;2022-09-01T10:11:11;25.50;99.90
20566;DHT22;10441;50.884;12.064;2022-09-01T10:13:38;22.90;99.90
20566;DHT22;10441;50.884;12.064;2022-09-01T10:16:06;23.90;99.90
20566;DHT22;10441;50.884;12.064;2022-09-01T10:18:41;23.40;99.90
20566;DHT22;10441;50.884;12.064;2022-09-01T10:21:14;23.60;99.90
20566;DHT22;10441;50.884;12.064;2022-09-01T10:23:41;22.90;99.90
20566;DHT22;10441;50.884;12.064;2022-09-01T10:26:12;22.70;99.90
20566;DHT22;10441;50.884;12.064;2022-09-01T10:28:45;23.50;99.90
20566;DHT22;10441;50.884;12.064;2022-09-01T10:31:13;23.70;99.90
20566;DHT22;10441;50.884;12.064;2022-09-01T10:33:40;23.60;99.90
20566;DHT22;10441;50.884;12.064;2022-09-01T10:36:07;22.80;99.90
20566;DHT22;10441;50.884;12.064;2022-09-01T10:38:34;23.70;99.90
20566;DHT22;10441;50.884;12.064;2022-09-01T10:41:01;23.70;99.90
20566;DHT22;10441;50.884;12.064;2022-09-01T10:43:38;24.00;99.90
20566;DHT22;10441;50.884;12.064;2022-09-01T10:48:52;23.40;99.90
20566;DHT22;10441;50.884;12.064;2022-09-01T10:54:05;25.10;99.90
20566;DHT22;10441;50.884;12.064;2022-09-01T10:56:36;24.30;99.90
20566;DHT22;10441;50.884;12.064;2022-09-01T10:59:06;24.30;99.90
20566;DHT22;10441;50.884;12.064;2022-09-01T11:04:19;23.60;99.90
20566;DHT22;10441;50.884;12.064;2022-09-01T11:06:54;22.90;99.90
20566;DHT22;10441;50.884;12.064;2022-09-01T11:09:24;22.50;99.90
20566;DHT22;10441;50.884;12.064;2022-09-01T11:11:56;22.30;99.90
20566;DHT22;10441;50.884;12.064;2022-09-01T11:14:29;22.40;99.80
20566;DHT22;10441;50.884;12.064;2022-09-01T11:17:10;22.80;99.90
20566;DHT22;10441;50.884;12.064;2022-09-01T11:19:38;23.30;99.90
20566;DHT22;10441;50.884;12.064;2022-09-01T11:22:19;23.60;98.50
20566;DHT22;10441;50.884;12.064;2022-09-01T11:24:49;22.80;96.10
20566;DHT22;10441;50.884;12.064;2022-09-01T11:30:08;24.00;96.30
20566;DHT22;10441;50.884;12.064;2022-09-01T11:32:36;24.80;95.50
20566;DHT22;10441;50.884;12.064;2022-09-01T11:35:04;23.10;95.60
20566;DHT22;10441;50.884;12.064;2022-09-01T11:37:39;23.70;95.80
20566;DHT22;10441;50.884;12.064;2022-09-01T11:40:06;23.20;94.90
20566;DHT22;10441;50.884;12.064;2022-09-01T11:42:36;24.20;95.10
20566;DHT22;10441;50.884;12.064;2022-09-01T11:45:11;23.50;95.20
20566;DHT22;10441;50.884;12.064;2022-09-01T11:47:40;23.00;94.70
20566;DHT22;10441;50.884;12.064;2022-09-01T11:50:16;23.70;96.00
20566;DHT22;10441;50.884;12.064;2022-09-01T11:52:51;24.90;94.80
20566;DHT22;10441;50.884;12.064;2022-09-01T11:55:27;24.00;95.20
20566;DHT22;10441;50.884;12.064;2022-09-01T11:57:54;24.90;95.80
20566;DHT22;10441;50.884;12.064;2022-09-01T12:00:25;24.30;95.00
20566;DHT22;10441;50.884;12.064;2022-09-01T12:02:52;23.60;96.20
20566;DHT22;10441;50.884;12.064;2022-09-01T12:05:27;22.90;97.20
20566;DHT22;10441;50.884;12.064;2022-09-01T12:07:55;23.30;97.20
20566;DHT22;10441;50.884;12.064;2022-09-01T12:10:25;23.20;97.30
20566;DHT22;10441;50.884;12.064;2022-09-01T12:12:58;23.00;98.20
20566;DHT22;10441;50.884;12.064;2022-09-01T12:15:27;23.50;99.00
20566;DHT22;10441;50.884;12.064;2022-09-01T12:18:07;23.60;97.80
20566;DHT22;10441;50.884;12.064;2022-09-01T12:20:35;23.70;96.60
20566;DHT22;10441;50.884;12.064;2022-09-01T12:23:03;23.20;96.90
20566;DHT22;10441;50.884;12.064;2022-09-01T12:25:41;23.50;97.20
20566;DHT22;10441;50.884;12.064;2022-09-01T12:28:08;22.30;97.40
20566;DHT22;10441;50.884;12.064;2022-09-01T12:30:38;22.70;96.80
20566;DHT22;10441;50.884;12.064;2022-09-01T12:33:07;23.00;96.50
20566;DHT22;10441;50.884;12.064;2022-09-01T12:35:35;23.50;96.90
20566;DHT22;10441;50.884;12.064;2022-09-01T12:38:21;22.40;97.20
20566;DHT22;10441;50.884;12.064;2022-09-01T12:40:49;22.40;97.00
20566;DHT22;10441;50.884;12.064;2022-09-01T12:43:25;22.70;96.70
20566;DHT22;10441;50.884;12.064;2022-09-01T12:45:54;22.50;96.10
20566;DHT22;10441;50.884;12.064;2022-09-01T12:48:25;22.50;96.30
20566;DHT22;10441;50.884;12.064;2022-09-01T12:50:54;22.40;97.30
20566;DHT22;10441;50.884;12.064;2022-09-01T12:53:25;22.50;96.60
20566;DHT22;10441;50.884;12.064;2022-09-01T12:58:37;22.40;96.50
20566;DHT22;10441;50.884;12.064;2022-09-01T13:01:06;21.90;96.00
20566;DHT22;10441;50.884;12.064;2022-09-01T13:03:34;21.70;96.70
20566;DHT22;10441;50.884;12.064;2022-09-01T13:06:02;21.70;96.20
20566;DHT22;10441;50.884;12.064;2022-09-01T13:08:29;21.90;96.70
20566;DHT22;10441;50.884;12.064;2022-09-01T13:11:00;21.80;96.40
20566;DHT22;10441;50.884;12.064;2022-09-01T13:13:27;21.90;96.20
20566;DHT22;10441;50.884;12.064;2022-09-01T13:15:55;22.40;96.00
20566;DHT22;10441;50.884;12.064;2022-09-01T13:18:29;22.90;94.90
20566;DHT22;10441;50.884;12.064;2022-09-01T13:21:01;22.50;95.00
20566;DHT22;10441;50.884;12.064;2022-09-01T13:23:28;22.00;96.00
20566;DHT22;10441;50.884;12.064;2022-09-01T13:25:55;21.90;95.20
20566;DHT22;10441;50.884;12.064;2022-09-01T13:28:24;22.10;96.00
20566;DHT22;10441;50.884;12.064;2022-09-01T13:30:52;22.60;95.10
20566;DHT22;10441;50.884;12.064;2022-09-01T13:33:19;22.50;95.10
20566;DHT22;10441;50.884;12.064;2022-09-01T13:35:48;21.60;95.60
20566;DHT22;10441;50.884;12.064;2022-09-01T13:38:15;22.20;95.70
20566;DHT22;10441;50.884;12.064;2022-09-01T13:40:42;22.30;95.90
20566;DHT22;10441;50.884;12.064;2022-09-01T13:43:11;21.40;96.40
20566;DHT22;10441;50.884;12.064;2022-09-01T13:45:38;22.00;95.90
20566;DHT22;10441;50.884;12.064;2022-09-01T13:48:05;22.80;94.50
20566;DHT22;10441;50.884;12.064;2022-09-01T13:50:33;23.50;93.80
20566;DHT22;10441;50.884;12.064;2022-09-01T13:53:02;23.10;93.80
20566;DHT22;10441;50.884;12.064;2022-09-01T13:55:30;21.90;94.70
20566;DHT22;10441;50.884;12.064;2022-09-01T13:57:57;21.60;94.60
20566;DHT22;10441;50.884;12.064;2022-09-01T14:00:25;21.40;94.60
20566;DHT22;10441;50.884;12.064;2022-09-01T14:02:54;22.50;94.30
20566;DHT22;10441;50.884;12.064;2022-09-01T14:05:26;22.90;93.40
20566;DHT22;10441;50.884;12.064;2022-09-01T14:07:55;23.40;92.30
20566;DHT22;10441;50.884;12.064;2022-09-01T14:10:28;23.70;92.10
20566;DHT22;10441;50.884;12.064;2022-09-01T14:12:57;24.00;91.80
20566;DHT22;10441;50.884;12.064;2022-09-01T14:15:25;23.80;90.50
20566;DHT22;10441;50.884;12.064;2022-09-01T14:17:55;25.50;90.20
20566;DHT22;10441;50.884;12.064;2022-09-01T14:20:24;25.60;88.80
20566;DHT22;10441;50.884;12.064;2022-09-01T14:22:53;24.90;89.60
20566;DHT22;10441;50.884;12.064;2022-09-01T14:25:20;24.40;89.30
20566;DHT22;10441;50.884;12.064;2022-09-01T14:27:52;24.10;88.30
20566;DHT22;10441;50.884;12.064;2022-09-01T14:30:24;26.00;85.40
20566;DHT22;10441;50.884;12.064;2022-09-01T14:32:53;24.00;85.60
20566;DHT22;10441;50.884;12.064;2022-09-01T14:35:21;24.60;86.30
20566;DHT22;10441;50.884;12.064;2022-09-01T14:37:54;24.10;84.80
20566;DHT22;10441;50.884;12.064;2022-09-01T14:40:22;25.10;83.20
20566;DHT22;10441;50.884;12.064;2022-09-01T14:42:52;24.20;84.70
20566;DHT22;10441;50.884;12.064;2022-09-01T14:45:19;25.20;84.60
20566;DHT22;10441;50.884;12.064;2022-09-01T14:47:48;24.10;84.50
20566;DHT22;10441;50.884;12.064;2022-09-01T14:50:16;25.80;83.00
20566;DHT22;10441;50.884;12.064;2022-09-01T14:52:46;25.10;81.20
20566;DHT22;10441;50.884;12.064;2022-09-01T14:55:14;25.00;82.40
20566;DHT22;10441;50.884;12.064;2022-09-01T14:57:42;25.00;80.60
20566;DHT22;10441;50.884;12.064;2022-09-01T15:00:12;26.00;78.80
20566;DHT22;10441;50.884;12.064;2022-09-01T15:02:41;24.70;76.80
20566;DHT22;10441;50.884;12.064;2022-09-01T15:05:11;24.90;77.60
20566;DHT22;10441;50.884;12.064;2022-09-01T15:07:39;25.70;75.20
20566;DHT22;10441;50.884;12.064;2022-09-01T15:10:08;24.60;78.90
20566;DHT22;10441;50.884;12.064;2022-09-01T15:12:35;23.50;78.30
20566;DHT22;10441;50.884;12.064;2022-09-01T15:15:04;23.70;78.40
20566;DHT22;10441;50.884;12.064;2022-09-01T15:17:32;22.40;80.20
20566;DHT22;10441;50.884;12.064;2022-09-01T15:19:59;21.80;84.20
20566;DHT22;10441;50.884;12.064;2022-09-01T15:22:47;21.80;84.70
20566;DHT22;10441;50.884;12.064;2022-09-01T15:25:15;21.70;84.10
20566;DHT22;10441;50.884;12.064;2022-09-01T15:27:44;21.90;84.30
20566;DHT22;10441;50.884;12.064;2022-09-01T15:30:16;21.70;85.00
20566;DHT22;10441;50.884;12.064;2022-09-01T15:32:46;21.90;86.30
20566;DHT22;10441;50.884;12.064;2022-09-01T15:35:13;21.40;90.80
20566;DHT22;10441;50.884;12.064;2022-09-01T15:37:41;21.40;92.00
20566;DHT22;10441;50.884;12.064;2022-09-01T15:40:10;21.40;92.60
20566;DHT22;10441;50.884;12.064;2022-09-01T15:42:37;21.30;92.50
20566;DHT22;10441;50.884;12.064;2022-09-01T15:45:05;21.50;92.70